Cameron, Oklahoma
Current Conditions -  °F | °C
As of 5:15 AM on Monday 22 Dec 2014 (Local Time) from KRKR Reporting Station
Overcast Overcast  
Wind Chill: 52°   Ceiling: 2100
Heat Index: 52°   Visibility: 10mi
Dew Point: 46°   Wind: 13mph
Humidity: 79%   Direction: 180°S
Pressure: 29.64"   Gusts: 18mph
Location:  35.13°N, 94.53°W
Report Text: KRKR 221115Z AUTO 18011G16KT 10SM OVC021 11/08 A2964 RMK AO2 T01100075
Loading
Personal Weather Stations






























Interactive Weather Map New forecast layout! Learn more

10-Day Weather Forecast

Advertisements
Track Severe Weather on mobile